Portada
METAR-TAF:

METAR-TAF

Aeroports :

Perusa, Itàlia

latitud: 43-05N, longitud: 012-30E, altitud: 208 m

Observació

L'informe es va fer fa 2 hores i 28 minuts, a les 20:50 UTC
Vent 7 kt del Nord/Nord-Oest
Temperatura 28°C
Humitat 58%
Pressió 1017 hPa
Visibilitat 10 km o més
sense núvols per sota de 1500 mi sense presència de cumulonimbus.

METAR: LIRZ 182050Z 34007KT CAVOK 28/19 Q1017

Hora: 01:18 (23:18 UTC)

Pronòstic

L'informe es va fer fa 6 hores i 18 minuts, a les 17:00 UTC
Pronòstic vàlid del 18 a les 18 UTC al 19 a les 18 UTC
Vent 7 kt del Nord/Nord-Est
Visibilitat 10 km o més
sense núvols per sota de 1500 mi sense presència de cumulonimbus.

TAF: LIRZ 181700Z 1818/1918 02007KT CAVOK

Observacions i pronòstics meteorològics de més de 4000 aeroports (METAR i TAF).

Les estacions disponibles són els punts grocs i vermells al mapa.

Posi el ratolí al punt desitjat per veure el nom de l'estació.

Feu clic per veure les observacions i els pronòstics meteorològics.

Per canviar el mapa: feu clic els botons verds amb una creu de color negre per apropar; al botó verd amb un guió per allunyar la imatge; o en les fletxes verdes per a mapes adjacents.


METAR-TAF: